Time;durP1;ratioP1;P1;durP2;ratioP2;P2;SDS_P1;SDS_P2;PMS_P1;PMS_P2;Temp;Humidity;BMP_temperature;BMP_pressure;BME280_temperature;BME280_humidity;BME280_pressure;Samples;Min_cycle;Max_cycle;Signal;HPM_P1;HPM_P2
2022/03/02 00:01:09;;;;;;;12.50;8.40;;;;;;;-0.44;49.41;96266.84;4956394;28;20177;-82
2022/03/02 00:03:35;;;;;;;15.67;8.77;;;;;;;-0.43;49.09;96267.66;4958864;28;20699;-82
2022/03/02 00:06:00;;;;;;;14.00;8.87;;;;;;;-0.42;49.55;96265.03;4991863;28;20278;-81
2022/03/02 00:08:26;;;;;;;14.80;9.13;;;;;;;-0.44;49.04;96256.63;4993382;28;20730;-81
2022/03/02 00:10:51;;;;;;;16.33;9.40;;;;;;;-0.42;49.67;96252.28;4945099;28;20178;-82
2022/03/02 00:13:17;;;;;;;13.33;8.23;;;;;;;-0.40;49.32;96264.97;4976165;28;20204;-81
2022/03/02 00:15:42;;;;;;;14.20;9.27;;;;;;;-0.44;49.96;96264.28;4960500;28;20242;-82
2022/03/02 00:18:07;;;;;;;13.50;8.87;;;;;;;-0.46;49.33;96263.50;4960765;28;20247;-82
2022/03/02 00:20:33;;;;;;;10.87;8.53;;;;;;;-0.38;49.15;96265.72;4961445;28;20185;-81
2022/03/02 00:22:58;;;;;;;15.33;8.57;;;;;;;-0.33;48.57;96254.44;4959784;28;20702;-81
2022/03/02 00:25:23;;;;;;;13.63;8.47;;;;;;;-0.31;48.77;96257.75;4960834;28;20200;-81
2022/03/02 00:27:49;;;;;;;13.87;8.73;;;;;;;-0.31;49.00;96262.03;4961161;28;20182;-80
2022/03/02 00:30:14;;;;;;;12.50;8.20;;;;;;;-0.32;48.65;96263.75;4960991;28;20218;-80
2022/03/02 00:32:40;;;;;;;14.10;9.17;;;;;;;-0.29;48.47;96263.63;4977683;28;20203;-81
2022/03/02 00:35:06;;;;;;;13.03;8.67;;;;;;;-0.28;48.46;96267.81;4976725;28;20177;-80
2022/03/02 00:37:31;;;;;;;13.93;8.53;;;;;;;-0.32;48.83;96266.31;4960939;28;20205;-80
2022/03/02 00:39:56;;;;;;;11.90;8.60;;;;;;;-0.29;48.60;96263.63;4976702;28;20190;-80
2022/03/02 00:42:22;;;;;;;12.27;8.37;;;;;;;-0.26;48.86;96261.84;4976129;28;20671;-81
2022/03/02 00:44:47;;;;;;;12.83;8.77;;;;;;;-0.26;48.72;96269.50;4960633;28;20181;-80
2022/03/02 00:47:13;;;;;;;14.03;9.30;;;;;;;-0.20;48.93;96271.78;4960038;28;20293;-80
2022/03/02 00:49:39;;;;;;;13.33;9.00;;;;;;;-0.29;49.33;96267.91;4977234;28;20179;-81
2022/03/02 00:52:06;;;;;;;13.43;8.83;;;;;;;-0.31;48.97;96270.53;4944247;28;20212;-82
2022/03/02 00:54:31;;;;;;;13.53;8.33;;;;;;;-0.31;49.26;96264.59;4976657;28;20677;-80
2022/03/02 00:56:56;;;;;;;15.67;8.80;;;;;;;-0.32;49.13;96261.22;4976273;28;20182;-81
2022/03/02 00:59:22;;;;;;;14.63;9.47;;;;;;;-0.41;49.60;96261.59;4960234;28;20223;-81
2022/03/02 01:01:48;;;;;;;13.47;7.87;;;;;;;-0.41;49.66;96259.03;4975313;28;20274;-80
2022/03/02 01:04:14;;;;;;;14.60;9.80;;;;;;;-0.40;49.42;96255.59;4943952;28;20214;-81
2022/03/02 01:06:39;;;;;;;12.43;8.50;;;;;;;-0.34;49.72;96249.41;4991404;28;20236;-81
2022/03/02 01:09:05;;;;;;;15.20;8.43;;;;;;;-0.38;49.76;96238.47;4943725;28;20183;-81
2022/03/02 01:11:30;;;;;;;16.07;8.80;;;;;;;-0.32;49.34;96234.84;4958970;28;20592;-80
2022/03/02 01:13:55;;;;;;;13.47;8.27;;;;;;;-0.28;49.03;96218.50;4943028;28;20294;-81
2022/03/02 01:16:21;;;;;;;17.30;8.07;;;;;;;-0.36;49.51;96221.38;4977223;28;20206;-82
2022/03/02 01:18:46;;;;;;;14.50;8.43;;;;;;;-0.37;49.65;96224.00;4954128;28;20204;-80
2022/03/02 01:21:11;;;;;;;14.47;8.50;;;;;;;-0.40;49.56;96222.41;4930068;29;20197;-81
2022/03/02 01:23:37;;;;;;;16.10;8.70;;;;;;;-0.38;49.33;96212.97;4955717;29;20293;-81
2022/03/02 01:26:03;;;;;;;17.50;8.53;;;;;;;-0.39;49.45;96211.31;4951976;29;20195;-81
2022/03/02 01:28:28;;;;;;;13.43;7.87;;;;;;;-0.41;49.44;96195.25;4955321;29;20186;-82
2022/03/02 01:30:54;;;;;;;15.33;8.60;;;;;;;-0.39;49.34;96193.44;4939583;29;20187;-81
2022/03/02 01:33:19;;;;;;;16.27;8.63;;;;;;;-0.48;49.94;96196.41;4938694;29;20197;-81
2022/03/02 01:35:44;;;;;;;13.63;8.73;;;;;;;-0.42;49.78;96191.03;4939685;29;20694;-81
2022/03/02 01:38:10;;;;;;;13.63;9.00;;;;;;;-0.42;49.40;96191.03;4954393;28;20207;-81
2022/03/02 01:40:35;;;;;;;14.30;9.30;;;;;;;-0.42;49.55;96188.50;4958209;28;20218;-81
2022/03/02 01:43:00;;;;;;;14.13;8.07;;;;;;;-0.49;49.74;96187.09;4957305;28;20205;-81
2022/03/02 01:45:26;;;;;;;20.03;8.47;;;;;;;-0.40;49.27;96183.31;4975262;28;20217;-81
2022/03/02 01:47:51;;;;;;;11.90;8.67;;;;;;;-0.47;49.35;96182.75;4958012;28;20229;-82
2022/03/02 01:50:17;;;;;;;14.20;8.70;;;;;;;-0.47;49.74;96192.94;4958088;28;20186;-82
2022/03/02 01:52:43;;;;;;;13.37;8.10;;;;;;;-0.47;49.70;96182.75;4957161;28;20242;-81
2022/03/02 01:55:10;;;;;;;15.43;9.27;;;;;;;-0.53;50.08;96177.91;4958145;28;20252;-82
2022/03/02 01:57:36;;;;;;;12.83;8.53;;;;;;;-0.65;50.40;96178.41;4975411;28;20193;-82
2022/03/02 02:00:06;;;;;;;14.30;9.50;;;;;;;-0.71;50.44;96173.56;4958002;28;20569;-81
2022/03/02 02:02:32;;;;;;;15.63;8.50;;;;;;;-0.67;50.31;96170.00;4973620;28;20211;-81
2022/03/02 02:04:57;;;;;;;13.23;9.13;;;;;;;-0.69;50.22;96167.53;4957018;28;20217;-81
2022/03/02 02:07:23;;;;;;;11.70;8.60;;;;;;;-0.71;50.19;96169.28;4975313;28;20186;-81
2022/03/02 02:09:48;;;;;;;16.13;8.93;;;;;;;-0.71;50.23;96173.56;4974024;28;20237;-82
2022/03/02 02:12:14;;;;;;;13.30;8.43;;;;;;;-0.79;50.40;96173.91;4957361;28;20266;-82
2022/03/02 02:14:39;;;;;;;14.17;8.30;;;;;;;-0.78;50.43;96169.63;4957499;28;20250;-80
2022/03/02 02:17:04;;;;;;;13.17;8.90;;;;;;;-0.76;50.42;96165.28;4957308;28;20245;-82
2022/03/02 02:19:30;;;;;;;13.30;8.50;;;;;;;-0.80;50.55;96164.56;4941569;28;20230;-82
2022/03/02 02:21:56;;;;;;;12.53;8.50;;;;;;;-0.83;50.68;96166.44;4957270;28;20203;-82
2022/03/02 02:24:21;;;;;;;11.57;8.20;;;;;;;-0.80;50.83;96159.47;4957232;28;20197;-81
2022/03/02 02:26:46;;;;;;;12.20;8.70;;;;;;;-0.81;51.03;96160.38;4957821;28;20239;-82
2022/03/02 02:29:11;;;;;;;15.10;9.00;;;;;;;-0.90;51.12;96155.66;4941269;28;20227;-81
2022/03/02 02:31:37;;;;;;;13.03;8.57;;;;;;;-0.89;51.29;96155.59;4956728;28;20199;-81
2022/03/02 02:34:02;;;;;;;12.37;9.03;;;;;;;-0.95;51.41;96150.75;4957367;28;20210;-82
2022/03/02 02:36:28;;;;;;;12.77;8.20;;;;;;;-0.93;51.24;96153.22;4957045;28;20189;-81
2022/03/02 02:38:54;;;;;;;15.30;8.20;;;;;;;-0.99;51.71;96151.75;4973132;28;20205;-81
2022/03/02 02:41:20;;;;;;;14.60;9.00;;;;;;;-1.00;51.87;96147.56;4956406;28;20185;-82
2022/03/02 02:43:46;;;;;;;13.77;8.57;;;;;;;-1.00;51.81;96146.72;4957091;28;20213;-81
2022/03/02 02:46:11;;;;;;;12.83;8.30;;;;;;;-0.99;52.01;96144.09;4957212;28;20205;-81
2022/03/02 02:48:37;;;;;;;11.60;8.37;;;;;;;-1.00;51.78;96147.56;4957064;28;20714;-80
2022/03/02 02:51:03;;;;;;;12.20;8.37;;;;;;;-1.07;51.90;96141.03;4956699;28;20260;-81
2022/03/02 02:53:28;;;;;;;12.67;8.47;;;;;;;-1.13;52.36;96143.03;4956615;28;20231;-81
2022/03/02 02:55:54;;;;;;;11.73;7.97;;;;;;;-1.23;52.75;96135.75;4956717;28;20275;-81
2022/03/02 02:58:19;;;;;;;14.13;9.27;;;;;;;-1.28;53.14;96137.66;4956829;28;20669;-80
2022/03/02 03:00:46;;;;;;;13.63;8.80;;;;;;;-1.20;52.89;96139.91;4956537;28;20660;-80
2022/03/02 03:03:12;;;;;;;13.70;8.97;;;;;;;-1.09;52.80;96142.00;4956254;28;20293;-82
2022/03/02 03:05:37;;;;;;;15.13;8.50;;;;;;;-1.16;52.88;96137.16;4955823;28;20220;-81
2022/03/02 03:08:05;;;;;;;12.67;8.33;;;;;;;-1.15;53.02;96135.44;4972900;28;20185;-80
2022/03/02 03:10:31;;;;;;;14.33;9.00;;;;;;;-1.16;53.27;96126.13;4940993;28;20181;-81
2022/03/02 03:12:56;;;;;;;13.20;8.77;;;;;;;-1.17;53.20;96125.31;4955969;28;20196;-81
2022/03/02 03:15:22;;;;;;;13.93;9.27;;;;;;;-1.22;54.05;96123.84;4956652;28;20180;-80
2022/03/02 03:17:48;;;;;;;18.23;9.20;;;;;;;-1.29;53.84;96124.97;4972422;28;20201;-80
2022/03/02 03:20:15;;;;;;;13.73;8.53;;;;;;;-1.28;53.78;96121.53;4956326;28;20181;-80
2022/03/02 03:22:41;;;;;;;14.87;8.70;;;;;;;-1.23;54.25;96122.19;4955701;28;20242;-80
2022/03/02 03:25:07;;;;;;;13.23;8.57;;;;;;;-1.33;54.47;96118.34;4940169;28;20197;-81
2022/03/02 03:27:33;;;;;;;13.60;8.60;;;;;;;-1.43;54.76;96123.81;4956444;28;20269;-80
2022/03/02 03:29:59;;;;;;;18.30;10.13;;;;;;;-1.47;55.07;96117.19;4956645;28;20209;-81
2022/03/02 03:32:24;;;;;;;13.17;8.70;;;;;;;-1.57;55.25;96110.81;4956021;28;20197;-81
2022/03/02 03:34:49;;;;;;;15.07;8.70;;;;;;;-1.54;55.07;96118.31;4956355;28;20696;-80
2022/03/02 03:37:15;;;;;;;15.40;8.97;;;;;;;-1.56;55.23;96114.19;4958705;28;20603;-80
2022/03/02 03:39:42;;;;;;;14.90;8.37;;;;;;;-1.58;55.25;96113.41;4960202;28;20287;-82
2022/03/02 03:42:08;;;;;;;16.83;8.57;;;;;;;-1.59;55.14;96107.50;4977271;28;20859;-80
2022/03/02 03:44:33;;;;;;;12.50;8.47;;;;;;;-1.63;55.27;96108.47;4959775;28;20215;-81
2022/03/02 03:46:59;;;;;;;12.80;8.70;;;;;;;-1.63;55.80;96113.56;4960193;28;20622;-81
2022/03/02 03:49:24;;;;;;;12.27;8.30;;;;;;;-1.66;55.57;96108.63;4944383;28;20187;-82
2022/03/02 03:51:49;;;;;;;10.30;7.73;;;;;;;-1.68;55.40;96112.91;4975627;28;20219;-80
2022/03/02 03:54:15;;;;;;;12.70;8.43;;;;;;;-1.63;55.44;96110.19;4960077;28;20181;-80
2022/03/02 03:56:40;;;;;;;14.97;9.07;;;;;;;-1.63;55.72;96111.03;4960268;28;20248;-80
2022/03/02 03:59:07;;;;;;;15.03;8.97;;;;;;;-1.67;55.88;96109.50;4960170;28;20276;-79
2022/03/02 04:01:33;;;;;;;12.83;8.63;;;;;;;-1.64;55.87;96109.38;4944202;28;20224;-81
2022/03/02 04:03:58;;;;;;;12.13;8.53;;;;;;;-1.56;55.67;96109.91;4960187;28;20180;-79
2022/03/02 04:06:24;;;;;;;15.53;8.70;;;;;;;-1.61;55.80;96114.34;4959341;28;20250;-81
2022/03/02 04:08:49;;;;;;;14.17;9.13;;;;;;;-1.63;55.94;96108.47;4960130;28;20179;-82
2022/03/02 04:11:14;;;;;;;14.53;9.30;;;;;;;-1.62;55.77;96106.75;4959658;28;20184;-81
2022/03/02 04:13:40;;;;;;;14.10;9.60;;;;;;;-1.58;55.92;96101.50;4960099;28;20617;-80
2022/03/02 04:16:06;;;;;;;13.20;8.63;;;;;;;-1.64;56.00;96106.81;4960099;28;20177;-82
2022/03/02 04:18:31;;;;;;;13.33;8.60;;;;;;;-1.65;56.28;96095.00;4960238;28;20612;-80
2022/03/02 04:20:57;;;;;;;14.23;9.57;;;;;;;-1.71;56.53;96092.69;4960560;28;20192;-82
2022/03/02 04:23:23;;;;;;;16.33;9.30;;;;;;;-1.69;56.56;96090.06;4958923;28;20265;-80
2022/03/02 04:25:48;;;;;;;13.33;9.40;;;;;;;-1.75;56.91;96083.50;4960238;28;20177;-80
2022/03/02 04:28:14;;;;;;;14.60;8.93;;;;;;;-1.63;56.49;96083.03;4959747;28;20171;-81
2022/03/02 04:30:39;;;;;;;15.63;9.07;;;;;;;-1.61;56.14;96080.41;4960020;28;20653;-81
2022/03/02 04:33:05;;;;;;;15.33;9.37;;;;;;;-1.54;56.18;96079.28;4959359;28;20208;-82
2022/03/02 04:35:31;;;;;;;10.97;8.00;;;;;;;-1.57;56.33;96070.06;4943699;28;20182;-80
2022/03/02 04:37:57;;;;;;;14.83;8.57;;;;;;;-1.52;56.14;96070.69;4959789;28;20190;-80
2022/03/02 04:40:22;;;;;;;14.13;9.60;;;;;;;-1.57;56.26;96057.31;4959561;28;20225;-79
2022/03/02 04:42:47;;;;;;;13.83;9.43;;;;;;;-1.54;56.63;96061.44;4976226;28;20197;-80
2022/03/02 04:45:16;;;;;;;16.63;9.13;;;;;;;-1.49;56.57;96062.09;4959535;28;20181;-79
2022/03/02 04:47:42;;;;;;;14.77;8.73;;;;;;;-1.45;56.52;96056.81;4958699;28;20177;-80
2022/03/02 04:50:08;;;;;;;14.27;8.83;;;;;;;-1.37;56.01;96055.66;4959066;28;20181;-82
2022/03/02 04:52:33;;;;;;;13.37;8.87;;;;;;;-1.33;56.33;96059.72;4958513;28;20197;-80
2022/03/02 04:55:09;;;;;;;13.07;8.83;;;;;;;-1.31;55.96;96056.25;4959245;28;20188;-82
2022/03/02 04:57:37;;;;;;;14.07;8.80;;;;;;;-1.32;56.24;96053.78;4961046;28;20644;-82
2022/03/02 05:00:12;;;;;;;15.10;9.30;;;;;;;-1.22;55.94;96050.78;4959395;28;20200;-81
2022/03/02 05:02:38;;;;;;;12.17;8.63;;;;;;;-1.29;55.88;96048.53;4958990;28;20197;-79
2022/03/02 05:05:05;;;;;;;12.17;8.77;;;;;;;-1.35;56.63;96041.13;4957971;28;20281;-80
2022/03/02 05:07:30;;;;;;;13.17;9.13;;;;;;;-1.35;56.67;96044.50;4959475;28;20324;-81
2022/03/02 05:09:55;;;;;;;15.93;8.73;;;;;;;-1.36;56.31;96047.13;4959123;28;20177;-80
2022/03/02 05:12:21;;;;;;;14.50;8.90;;;;;;;-1.36;57.00;96044.59;4958003;28;20612;-80
2022/03/02 05:14:48;;;;;;;15.63;9.20;;;;;;;-1.42;56.85;96046.47;4959485;28;20221;-80
2022/03/02 05:17:17;;;;;;;14.80;9.07;;;;;;;-1.35;56.82;96051.31;4958652;28;20341;-79
2022/03/02 05:19:42;;;;;;;14.17;9.17;;;;;;;-1.50;57.42;96040.91;4942487;28;20273;-80
2022/03/02 05:22:07;;;;;;;13.50;8.63;;;;;;;-1.48;57.30;96049.28;4958210;28;20819;-80
2022/03/02 05:24:33;;;;;;;16.17;9.50;;;;;;;-1.51;57.21;96044.31;4958891;28;20719;-79
2022/03/02 05:26:58;;;;;;;16.50;8.93;;;;;;;-1.55;57.31;96036.88;4960027;28;20188;-82
2022/03/02 05:29:23;;;;;;;13.87;9.23;;;;;;;-1.57;58.23;96034.41;4975983;28;20174;-81
2022/03/02 05:31:49;;;;;;;12.83;8.93;;;;;;;-1.63;58.20;96034.63;4975705;28;20184;-79
2022/03/02 05:34:14;;;;;;;13.33;8.80;;;;;;;-1.60;57.99;96028.56;4974923;28;20182;-80
2022/03/02 05:36:39;;;;;;;13.63;8.83;;;;;;;-1.60;57.98;96028.56;4959835;28;20192;-80
2022/03/02 05:39:05;;;;;;;13.67;8.93;;;;;;;-1.56;58.35;96025.84;4959491;28;20210;-80
2022/03/02 05:41:30;;;;;;;13.97;9.30;;;;;;;-1.48;57.87;96028.91;4957576;28;20189;-79
2022/03/02 05:43:55;;;;;;;13.07;9.10;;;;;;;-1.43;57.90;96026.16;4941910;28;20681;-80
2022/03/02 05:46:21;;;;;;;14.57;9.43;;;;;;;-1.43;57.34;96034.63;4941900;28;20190;-82
2022/03/02 05:48:46;;;;;;;13.87;9.10;;;;;;;-1.48;57.77;96044.22;4957647;28;20708;-79
2022/03/02 05:51:11;;;;;;;13.63;9.20;;;;;;;-1.50;57.50;96040.06;4956471;28;20203;-80
2022/03/02 05:53:37;;;;;;;14.53;9.10;;;;;;;-1.50;57.73;96040.91;4957966;28;20204;-80
2022/03/02 05:56:03;;;;;;;15.43;9.03;;;;;;;-1.49;57.67;96036.63;4941647;28;20177;-79
2022/03/02 05:58:28;;;;;;;16.23;9.00;;;;;;;-1.46;57.43;96036.50;4958243;28;20192;-80
2022/03/02 06:00:53;;;;;;;13.47;9.73;;;;;;;-1.34;57.82;96030.06;4941384;28;20676;-80
2022/03/02 06:03:20;;;;;;;18.47;10.07;;;;;;;-1.28;57.07;96025.53;4959154;28;20201;-80
2022/03/02 06:05:46;;;;;;;16.33;9.10;;;;;;;-1.22;56.77;96039.75;4941939;28;20183;-80
2022/03/02 06:08:11;;;;;;;15.10;10.00;;;;;;;-1.26;57.12;96039.03;4944648;28;20193;-80
2022/03/02 06:10:37;;;;;;;15.43;9.70;;;;;;;-1.23;57.45;96040.66;4959922;28;20938;-80
2022/03/02 06:13:03;;;;;;;14.90;9.67;;;;;;;-1.18;56.57;96046.38;4942701;28;20202;-80
2022/03/02 06:15:30;;;;;;;14.53;9.17;;;;;;;-1.18;56.83;96039.53;4958662;28;20183;-79
2022/03/02 06:17:55;;;;;;;13.50;8.40;;;;;;;-1.11;56.78;96040.13;4958120;28;20202;-80
2022/03/02 06:20:21;;;;;;;14.97;9.30;;;;;;;-1.01;56.20;96033.72;4957510;28;20196;-81
2022/03/02 06:22:46;;;;;;;13.53;9.27;;;;;;;-0.94;56.53;96040.22;4941548;28;20202;-80
2022/03/02 06:25:12;;;;;;;13.47;9.03;;;;;;;-0.87;56.21;96039.06;4957222;28;20272;-80
2022/03/02 06:27:38;;;;;;;17.73;9.67;;;;;;;-0.81;56.25;96032.03;4974196;28;20179;-79
2022/03/02 06:30:08;;;;;;;13.07;9.33;;;;;;;-0.75;55.86;96024.94;4957111;28;20187;-80
2022/03/02 06:32:34;;;;;;;13.53;8.93;;;;;;;-0.64;55.91;96027.03;4958510;28;20698;-80
2022/03/02 06:34:59;;;;;;;15.50;10.20;;;;;;;-0.62;55.83;96023.53;4960549;28;20201;-80
2022/03/02 06:37:26;;;;;;;13.77;8.80;;;;;;;-0.53;56.36;96024.84;4938922;28;20191;-81
2022/03/02 06:39:51;;;;;;;13.33;9.03;;;;;;;-0.43;55.75;96031.19;4956190;28;20208;-81
2022/03/02 06:42:24;;;;;;;20.07;9.60;;;;;;;-0.37;55.59;96035.97;4980730;28;20300;-78
2022/03/02 06:45:00;;;;;;;17.73;10.03;;;;;;;-0.24;55.10;96030.34;4936268;29;20692;-79
2022/03/02 06:47:27;;;;;;;16.03;9.30;;;;;;;-0.18;54.69;96028.31;4937573;29;20186;-79
2022/03/02 06:49:58;;;;;;;14.43;10.60;;;;;;;-0.09;54.57;96034.72;4943189;29;20188;-80
2022/03/02 06:52:27;;;;;;;14.57;10.17;;;;;;;0.01;54.01;96038.53;4952318;28;20665;-78
2022/03/02 06:54:54;;;;;;;14.83;10.10;;;;;;;0.11;53.74;96042.28;4972772;28;20190;-78
2022/03/02 06:57:26;;;;;;;17.33;9.93;;;;;;;0.20;52.96;96046.97;4939670;28;20239;-77
2022/03/02 06:59:53;;;;;;;16.60;10.20;;;;;;;0.24;52.50;96039.97;4956004;28;20207;-79
2022/03/02 07:02:28;;;;;;;15.47;9.43;;;;;;;0.35;52.24;96044.56;4940789;29;20210;-79
2022/03/02 07:04:55;;;;;;;14.90;9.47;;;;;;;0.38;52.26;96039.34;4953886;28;20231;-81
2022/03/02 07:07:20;;;;;;;15.87;9.60;;;;;;;0.46;51.91;96047.47;4938809;28;20204;-79
2022/03/02 07:09:46;;;;;;;15.80;9.87;;;;;;;0.53;51.51;96047.09;4940043;28;21155;-79
2022/03/02 07:12:11;;;;;;;15.57;9.70;;;;;;;0.58;51.62;96044.28;4972741;28;20237;-79
2022/03/02 07:14:37;;;;;;;13.63;9.57;;;;;;;0.70;50.82;96042.84;4955645;28;20641;-79
2022/03/02 07:17:04;;;;;;;14.80;9.53;;;;;;;0.76;50.66;96040.00;4955627;28;20662;-79
2022/03/02 07:19:29;;;;;;;14.43;9.50;;;;;;;0.81;50.02;96038.88;4955573;28;20675;-79
2022/03/02 07:21:55;;;;;;;14.70;9.47;;;;;;;0.93;49.79;96032.31;4954769;28;20221;-81
2022/03/02 07:24:22;;;;;;;14.77;9.50;;;;;;;1.03;49.66;96035.22;4968152;28;20257;-79
2022/03/02 07:26:57;;;;;;;13.03;9.17;;;;;;;1.11;49.53;96045.91;4954689;28;20188;-78
2022/03/02 07:29:24;;;;;;;15.17;9.37;;;;;;;1.20;49.55;96039.50;4970080;28;20198;-78
2022/03/02 07:31:51;;;;;;;13.13;9.33;;;;;;;1.16;48.71;96041.41;4939043;28;20191;-79
2022/03/02 07:34:18;;;;;;;13.63;9.10;;;;;;;1.24;48.51;96044.38;4956495;28;20336;-79
2022/03/02 07:36:43;;;;;;;13.57;9.07;;;;;;;1.32;48.01;96039.69;4938072;28;20274;-79
2022/03/02 07:39:09;;;;;;;15.13;9.87;;;;;;;1.52;48.18;96048.06;4962584;28;20274;-79
2022/03/02 07:41:35;;;;;;;16.60;11.83;;;;;;;1.59;48.84;96047.66;4938105;28;20214;-79
2022/03/02 07:44:02;;;;;;;18.73;12.07;;;;;;;1.65;48.88;96057.56;4954775;28;20194;-81
2022/03/02 07:46:29;;;;;;;17.83;10.30;;;;;;;1.69;49.04;96053.13;4952326;28;20199;-81
2022/03/02 07:48:55;;;;;;;16.07;10.27;;;;;;;1.80;48.64;96058.50;4953609;28;20180;-81
2022/03/02 07:51:21;;;;;;;13.20;8.77;;;;;;;1.81;48.94;96049.91;4938262;28;20658;-80
2022/03/02 07:53:49;;;;;;;11.87;8.67;;;;;;;1.83;49.69;96063.44;4935961;29;20756;-80
2022/03/02 07:56:15;;;;;;;15.37;9.07;;;;;;;1.87;49.80;96062.38;4939670;28;20274;-81
2022/03/02 07:58:42;;;;;;;15.00;9.80;;;;;;;1.81;49.27;96062.72;4954283;28;20281;-80
2022/03/02 08:01:08;;;;;;;17.20;10.63;;;;;;;1.69;49.03;96064.19;4938216;28;20567;-80
2022/03/02 08:03:38;;;;;;;13.47;9.07;;;;;;;1.85;48.48;96065.91;4954759;28;20198;-80
2022/03/02 08:06:03;;;;;;;14.37;9.83;;;;;;;1.83;49.03;96066.00;4939492;28;20188;-80
2022/03/02 08:08:29;;;;;;;14.90;9.73;;;;;;;1.87;49.35;96059.81;4955375;28;20188;-82
2022/03/02 08:10:54;;;;;;;14.37;8.80;;;;;;;1.99;49.43;96045.53;4947190;28;20247;-80
2022/03/02 08:13:19;;;;;;;12.80;8.83;;;;;;;1.97;48.56;96058.41;4954099;28;20238;-81
2022/03/02 08:15:45;;;;;;;14.17;9.50;;;;;;;2.06;47.79;96053.72;4923215;29;20575;-81
2022/03/02 08:18:10;;;;;;;13.80;9.30;;;;;;;2.17;48.45;96053.94;4944084;28;20232;-81
2022/03/02 08:20:36;;;;;;;14.37;9.30;;;;;;;2.27;47.97;96055.09;4939220;28;20239;-81
2022/03/02 08:23:05;;;;;;;21.50;12.23;;;;;;;2.37;47.85;96043.41;4954216;28;20203;-82
2022/03/02 08:25:31;;;;;;;18.70;11.13;;;;;;;2.39;47.80;96044.16;4957338;28;20203;-80
2022/03/02 08:27:57;;;;;;;14.73;9.73;;;;;;;2.48;46.17;96041.09;4958095;28;20191;-81
2022/03/02 08:30:23;;;;;;;15.70;10.00;;;;;;;2.66;46.43;96046.09;4957630;28;20649;-80
2022/03/02 08:32:49;;;;;;;17.10;11.23;;;;;;;2.74;46.00;96043.88;4941039;28;20257;-80
2022/03/02 08:35:16;;;;;;;16.37;10.70;;;;;;;2.89;44.96;96044.75;4941612;28;20564;-80
2022/03/02 08:37:42;;;;;;;11.63;8.93;;;;;;;3.02;42.74;96048.28;4943075;28;20683;-79
2022/03/02 08:40:08;;;;;;;11.47;8.13;;;;;;;3.02;41.96;96041.41;4959463;28;20617;-79
2022/03/02 08:42:34;;;;;;;14.47;8.70;;;;;;;3.06;41.90;96042.84;4958714;28;20234;-80
2022/03/02 08:44:59;;;;;;;13.20;9.03;;;;;;;3.10;42.35;96048.66;4938980;29;20185;-80
2022/03/02 08:47:25;;;;;;;16.87;11.10;;;;;;;3.00;48.05;96039.81;4937735;29;20650;-80
2022/03/02 08:49:51;;;;;;;15.63;11.00;;;;;;;3.00;48.02;96039.81;4958329;28;21100;-79
2022/03/02 08:52:18;;;;;;;14.20;9.70;;;;;;;3.12;47.15;96039.94;4958103;28;20359;-79
2022/03/02 08:54:45;;;;;;;17.30;10.90;;;;;;;3.25;46.74;96039.19;4959516;28;20561;-78
2022/03/02 08:57:10;;;;;;;13.90;10.13;;;;;;;3.27;48.74;96034.78;4964599;28;20244;-79
2022/03/02 08:59:38;;;;;;;14.67;10.63;;;;;;;3.17;48.74;96043.97;4970013;28;20231;-79
2022/03/02 09:02:06;;;;;;;23.30;15.97;;;;;;;2.96;47.55;96048.63;4971488;28;20263;-79
2022/03/02 09:04:34;;;;;;;26.93;17.93;;;;;;;2.89;47.11;96049.88;4973210;28;20208;-78
2022/03/02 09:07:00;;;;;;;18.43;13.87;;;;;;;3.17;47.08;96054.22;4960809;28;20252;-80
2022/03/02 09:09:25;;;;;;;18.40;12.80;;;;;;;3.03;48.44;96052.50;4978778;28;20165;-80
2022/03/02 09:11:51;;;;;;;19.83;11.37;;;;;;;3.10;47.94;96051.22;4977471;28;20248;-79
2022/03/02 09:14:17;;;;;;;20.17;13.90;;;;;;;3.11;47.16;96045.16;4976398;28;20227;-80
2022/03/02 09:16:44;;;;;;;17.13;11.47;;;;;;;3.20;46.11;96046.38;4983542;28;20195;-80
2022/03/02 09:19:10;;;;;;;18.83;12.23;;;;;;;3.08;46.30;96043.59;4994651;28;20189;-80
2022/03/02 09:21:36;;;;;;;15.90;10.10;;;;;;;3.39;45.53;96045.19;4953329;28;20186;-80
2022/03/02 09:24:02;;;;;;;14.23;10.47;;;;;;;3.47;46.62;96044.72;4961484;28;20205;-80
2022/03/02 09:26:27;;;;;;;14.53;9.60;;;;;;;3.38;46.02;96045.28;4963670;28;20227;-80
2022/03/02 09:28:53;;;;;;;15.20;11.30;;;;;;;3.49;45.26;96049.75;4981159;28;20239;-80
2022/03/02 09:31:20;;;;;;;14.83;10.23;;;;;;;3.39;44.89;96044.34;4980572;28;20248;-80
2022/03/02 09:33:48;;;;;;;17.37;11.00;;;;;;;3.26;44.85;96043.41;4980654;28;20211;-80
2022/03/02 09:36:19;;;;;;;23.47;13.37;;;;;;;3.44;44.97;96044.88;4981127;28;20184;-81
2022/03/02 09:38:47;;;;;;;18.73;11.93;;;;;;;3.44;44.78;96044.88;4981057;28;20201;-81
2022/03/02 09:41:23;;;;;;;14.07;9.87;;;;;;;3.50;43.10;96048.84;4946761;29;20225;-81
2022/03/02 09:43:50;;;;;;;14.97;9.77;;;;;;;3.39;43.54;96041.78;4972735;28;20210;-80
2022/03/02 09:46:17;;;;;;;14.23;9.67;;;;;;;3.73;43.43;96045.72;4960974;28;20611;-79
2022/03/02 09:48:49;;;;;;;14.87;9.60;;;;;;;3.76;43.82;96047.25;4956603;28;20252;-79
2022/03/02 09:51:22;;;;;;;15.17;10.30;;;;;;;3.93;43.96;96050.44;4978702;28;20265;-80
2022/03/02 09:53:49;;;;;;;13.67;9.63;;;;;;;4.08;43.52;96040.97;4978881;28;20191;-80
2022/03/02 09:56:15;;;;;;;17.57;10.10;;;;;;;3.91;44.64;96044.59;4959828;28;20177;-79
2022/03/02 09:58:42;;;;;;;14.00;9.10;;;;;;;4.02;44.38;96045.66;4958132;28;20652;-81
2022/03/02 10:01:15;;;;;;;13.13;9.50;;;;;;;4.29;43.84;96037.94;4942076;28;20184;-80
2022/03/02 10:03:44;;;;;;;11.13;8.77;;;;;;;4.40;44.72;96038.91;4957556;28;20201;-80
2022/03/02 10:06:11;;;;;;;15.10;9.73;;;;;;;4.45;44.25;96044.59;4942436;28;20641;-81
2022/03/02 10:08:48;;;;;;;15.13;9.87;;;;;;;4.34;43.62;96048.78;4957154;28;20180;-81
2022/03/02 10:11:18;;;;;;;16.00;10.63;;;;;;;4.29;43.42;96038.78;4941587;28;20172;-81
2022/03/02 10:13:44;;;;;;;15.30;10.03;;;;;;;4.49;43.46;96035.75;4938779;29;20617;-81
2022/03/02 10:16:14;;;;;;;14.57;9.97;;;;;;;4.37;42.77;96035.72;4939288;29;20193;-81
2022/03/02 10:18:40;;;;;;;15.03;10.83;;;;;;;4.09;44.09;96036.66;4940693;29;20696;-81
2022/03/02 10:21:05;;;;;;;14.83;10.00;;;;;;;4.47;43.01;96027.31;4971167;28;20199;-80
2022/03/02 10:23:36;;;;;;;15.07;10.53;;;;;;;4.57;43.33;96027.53;4974107;28;20270;-81
2022/03/02 10:26:15;;;;;;;16.90;10.73;;;;;;;4.38;44.21;96027.91;4976594;28;20176;-78
2022/03/02 10:28:52;;;;;;;15.37;10.17;;;;;;;4.00;43.60;96030.34;4973668;28;20650;-79
2022/03/02 10:31:44;;;;;;;15.63;9.97;;;;;;;4.03;43.41;96039.59;4956498;28;20191;-79
2022/03/02 10:34:32;;;;;;;14.50;9.90;;;;;;;4.34;43.39;96041.91;4958341;28;20194;-79
2022/03/02 10:37:19;;;;;;;15.60;9.97;;;;;;;4.11;43.29;96043.34;4975465;28;20598;-79
2022/03/02 10:39:52;;;;;;;14.00;9.67;;;;;;;4.28;43.37;96044.84;4975099;28;20209;-79
2022/03/02 10:42:22;;;;;;;14.10;9.30;;;;;;;4.41;41.76;96042.31;4957390;28;20208;-79
2022/03/02 10:44:54;;;;;;;13.70;9.43;;;;;;;4.29;43.58;96033.63;4975650;28;20189;-79
2022/03/02 10:47:21;;;;;;;14.03;10.10;;;;;;;4.49;42.08;96034.94;4939950;28;20243;-79
2022/03/02 10:49:48;;;;;;;14.40;9.20;;;;;;;4.52;42.59;96039.88;4941557;28;20215;-79
2022/03/02 10:52:16;;;;;;;12.43;8.87;;;;;;;4.38;42.63;96034.78;4941140;28;20533;-79
2022/03/02 10:54:42;;;;;;;14.73;9.87;;;;;;;4.45;42.83;96029.16;4941668;28;20620;-79
2022/03/02 10:57:11;;;;;;;13.77;9.87;;;;;;;4.45;42.89;96028.34;4957396;28;20184;-80
2022/03/02 10:59:37;;;;;;;14.60;10.23;;;;;;;4.69;42.56;96029.34;4941916;28;20210;-79
2022/03/02 11:02:03;;;;;;;14.73;9.67;;;;;;;4.83;42.13;96021.53;4941388;28;20299;-80
2022/03/02 11:04:30;;;;;;;14.30;9.67;;;;;;;4.74;42.06;96029.84;4956258;28;20336;-78
2022/03/02 11:06:55;;;;;;;13.37;9.93;;;;;;;4.64;41.48;96030.56;4957450;28;20552;-79
2022/03/02 11:09:20;;;;;;;14.47;9.93;;;;;;;5.01;41.65;96026.38;4940723;28;20188;-78
2022/03/02 11:11:46;;;;;;;11.70;9.00;;;;;;;5.38;39.49;96017.81;4959359;28;20180;-78
2022/03/02 11:14:12;;;;;;;14.17;9.17;;;;;;;5.24;39.08;96012.81;4957582;28;20678;-78
2022/03/02 11:16:37;;;;;;;13.03;8.30;;;;;;;5.26;36.86;96008.38;4957640;28;20797;-78
2022/03/02 11:19:15;;;;;;;14.97;8.90;;;;;;;5.46;36.80;96006.19;4957533;28;20638;-79
2022/03/02 11:21:43;;;;;;;16.27;9.03;;;;;;;5.46;37.09;96003.59;4940342;28;20192;-79
2022/03/02 11:24:09;;;;;;;13.43;8.80;;;;;;;5.45;37.13;95995.06;4955955;28;20254;-79